sensor_id;sensor_type;location;lat;lon;timestamp;P1;durP1;ratioP1;P2;durP2;ratioP2
7027;SDS011;3555;53.248;10.336;2023-12-20T00:00:19;8.50;;;1.90;;
7027;SDS011;3555;53.248;10.336;2023-12-20T00:02:46;7.60;;;2.20;;
7027;SDS011;3555;53.248;10.336;2023-12-20T00:05:13;11.37;;;2.03;;
7027;SDS011;3555;53.248;10.336;2023-12-20T00:07:40;10.83;;;2.03;;
7027;SDS011;3555;53.248;10.336;2023-12-20T00:10:07;10.10;;;2.70;;
7027;SDS011;3555;53.248;10.336;2023-12-20T00:12:35;7.50;;;1.77;;
7027;SDS011;3555;53.248;10.336;2023-12-20T00:15:02;9.87;;;2.23;;
7027;SDS011;3555;53.248;10.336;2023-12-20T00:17:29;9.83;;;2.10;;
7027;SDS011;3555;53.248;10.336;2023-12-20T00:19:56;8.20;;;2.20;;
7027;SDS011;3555;53.248;10.336;2023-12-20T00:22:23;6.13;;;2.00;;
7027;SDS011;3555;53.248;10.336;2023-12-20T00:24:50;9.77;;;1.70;;
7027;SDS011;3555;53.248;10.336;2023-12-20T00:27:16;12.73;;;2.57;;
7027;SDS011;3555;53.248;10.336;2023-12-20T00:29:45;12.33;;;2.40;;
7027;SDS011;3555;53.248;10.336;2023-12-20T00:32:14;13.23;;;1.87;;
7027;SDS011;3555;53.248;10.336;2023-12-20T00:34:41;6.57;;;2.13;;
7027;SDS011;3555;53.248;10.336;2023-12-20T00:37:09;11.97;;;1.83;;
7027;SDS011;3555;53.248;10.336;2023-12-20T00:39:36;11.50;;;1.97;;
7027;SDS011;3555;53.248;10.336;2023-12-20T00:42:03;7.57;;;1.43;;
7027;SDS011;3555;53.248;10.336;2023-12-20T00:44:30;13.43;;;2.20;;
7027;SDS011;3555;53.248;10.336;2023-12-20T00:46:58;6.57;;;1.87;;
7027;SDS011;3555;53.248;10.336;2023-12-20T00:49:26;10.60;;;2.20;;
7027;SDS011;3555;53.248;10.336;2023-12-20T00:51:53;10.03;;;2.00;;
7027;SDS011;3555;53.248;10.336;2023-12-20T00:54:19;10.00;;;2.10;;
7027;SDS011;3555;53.248;10.336;2023-12-20T00:56:46;9.47;;;1.70;;
7027;SDS011;3555;53.248;10.336;2023-12-20T00:59:13;7.23;;;2.03;;
7027;SDS011;3555;53.248;10.336;2023-12-20T01:01:41;7.60;;;2.10;;
7027;SDS011;3555;53.248;10.336;2023-12-20T01:04:09;11.03;;;2.00;;
7027;SDS011;3555;53.248;10.336;2023-12-20T01:06:36;11.80;;;2.10;;
7027;SDS011;3555;53.248;10.336;2023-12-20T01:09:03;7.20;;;1.90;;
7027;SDS011;3555;53.248;10.336;2023-12-20T01:11:30;11.43;;;3.27;;
7027;SDS011;3555;53.248;10.336;2023-12-20T01:13:57;14.07;;;2.60;;
7027;SDS011;3555;53.248;10.336;2023-12-20T01:16:24;10.07;;;1.77;;
7027;SDS011;3555;53.248;10.336;2023-12-20T01:18:51;10.43;;;2.00;;
7027;SDS011;3555;53.248;10.336;2023-12-20T01:21:19;12.57;;;2.07;;
7027;SDS011;3555;53.248;10.336;2023-12-20T01:23:46;16.67;;;2.40;;
7027;SDS011;3555;53.248;10.336;2023-12-20T01:26:12;8.77;;;2.20;;
7027;SDS011;3555;53.248;10.336;2023-12-20T01:28:41;7.13;;;1.93;;
7027;SDS011;3555;53.248;10.336;2023-12-20T01:31:08;14.40;;;2.60;;
7027;SDS011;3555;53.248;10.336;2023-12-20T01:33:35;12.80;;;2.53;;
7027;SDS011;3555;53.248;10.336;2023-12-20T01:36:02;8.67;;;2.30;;
7027;SDS011;3555;53.248;10.336;2023-12-20T01:38:31;13.33;;;2.00;;
7027;SDS011;3555;53.248;10.336;2023-12-20T01:40:58;14.37;;;2.33;;
7027;SDS011;3555;53.248;10.336;2023-12-20T01:43:25;12.53;;;2.37;;
7027;SDS011;3555;53.248;10.336;2023-12-20T01:45:52;15.90;;;2.30;;
7027;SDS011;3555;53.248;10.336;2023-12-20T01:48:19;10.60;;;2.03;;
7027;SDS011;3555;53.248;10.336;2023-12-20T01:50:46;7.70;;;1.90;;
7027;SDS011;3555;53.248;10.336;2023-12-20T01:53:14;8.17;;;2.40;;
7027;SDS011;3555;53.248;10.336;2023-12-20T01:55:43;11.93;;;2.30;;
7027;SDS011;3555;53.248;10.336;2023-12-20T01:58:11;11.07;;;2.30;;
7027;SDS011;3555;53.248;10.336;2023-12-20T02:00:39;7.67;;;1.90;;
7027;SDS011;3555;53.248;10.336;2023-12-20T02:03:07;13.27;;;2.57;;
7027;SDS011;3555;53.248;10.336;2023-12-20T02:05:34;10.30;;;2.33;;
7027;SDS011;3555;53.248;10.336;2023-12-20T02:08:02;6.40;;;2.20;;
7027;SDS011;3555;53.248;10.336;2023-12-20T02:10:29;13.27;;;2.50;;
7027;SDS011;3555;53.248;10.336;2023-12-20T02:12:57;10.17;;;1.87;;
7027;SDS011;3555;53.248;10.336;2023-12-20T02:15:24;12.17;;;2.57;;
7027;SDS011;3555;53.248;10.336;2023-12-20T02:17:51;10.50;;;3.13;;
7027;SDS011;3555;53.248;10.336;2023-12-20T02:20:18;13.63;;;2.67;;
7027;SDS011;3555;53.248;10.336;2023-12-20T02:22:46;11.17;;;2.87;;
7027;SDS011;3555;53.248;10.336;2023-12-20T02:25:13;11.33;;;2.73;;
7027;SDS011;3555;53.248;10.336;2023-12-20T02:27:40;9.57;;;2.70;;
7027;SDS011;3555;53.248;10.336;2023-12-20T02:30:08;9.67;;;3.27;;
7027;SDS011;3555;53.248;10.336;2023-12-20T02:32:36;14.70;;;3.10;;
7027;SDS011;3555;53.248;10.336;2023-12-20T02:35:03;10.10;;;3.10;;
7027;SDS011;3555;53.248;10.336;2023-12-20T02:37:30;13.47;;;3.27;;
7027;SDS011;3555;53.248;10.336;2023-12-20T02:40:00;14.03;;;3.50;;
7027;SDS011;3555;53.248;10.336;2023-12-20T02:42:26;12.10;;;3.70;;
7027;SDS011;3555;53.248;10.336;2023-12-20T02:44:53;10.30;;;3.47;;
7027;SDS011;3555;53.248;10.336;2023-12-20T02:47:20;9.27;;;4.33;;
7027;SDS011;3555;53.248;10.336;2023-12-20T02:49:47;14.23;;;4.07;;
7027;SDS011;3555;53.248;10.336;2023-12-20T02:52:14;14.23;;;3.77;;
7027;SDS011;3555;53.248;10.336;2023-12-20T02:54:41;8.27;;;3.60;;
7027;SDS011;3555;53.248;10.336;2023-12-20T02:57:09;9.97;;;3.57;;
7027;SDS011;3555;53.248;10.336;2023-12-20T02:59:36;11.23;;;4.00;;
7027;SDS011;3555;53.248;10.336;2023-12-20T03:02:03;9.87;;;3.83;;
7027;SDS011;3555;53.248;10.336;2023-12-20T03:04:30;8.73;;;3.80;;
7027;SDS011;3555;53.248;10.336;2023-12-20T03:06:57;9.67;;;4.33;;
7027;SDS011;3555;53.248;10.336;2023-12-20T03:09:23;6.80;;;3.37;;
7027;SDS011;3555;53.248;10.336;2023-12-20T03:11:50;17.80;;;4.07;;
7027;SDS011;3555;53.248;10.336;2023-12-20T03:14:19;10.80;;;3.67;;
7027;SDS011;3555;53.248;10.336;2023-12-20T03:16:46;9.17;;;3.60;;
7027;SDS011;3555;53.248;10.336;2023-12-20T03:19:15;15.13;;;4.40;;
7027;SDS011;3555;53.248;10.336;2023-12-20T03:21:42;14.20;;;3.67;;
7027;SDS011;3555;53.248;10.336;2023-12-20T03:24:09;9.13;;;4.10;;
7027;SDS011;3555;53.248;10.336;2023-12-20T03:26:36;11.43;;;2.90;;
7027;SDS011;3555;53.248;10.336;2023-12-20T03:29:02;8.60;;;3.93;;
7027;SDS011;3555;53.248;10.336;2023-12-20T03:31:31;8.10;;;3.00;;
7027;SDS011;3555;53.248;10.336;2023-12-20T03:33:57;9.70;;;3.20;;
7027;SDS011;3555;53.248;10.336;2023-12-20T03:36:24;12.40;;;3.10;;
7027;SDS011;3555;53.248;10.336;2023-12-20T03:38:51;8.33;;;2.80;;
7027;SDS011;3555;53.248;10.336;2023-12-20T03:41:18;10.07;;;2.57;;
7027;SDS011;3555;53.248;10.336;2023-12-20T03:43:45;9.87;;;2.87;;
7027;SDS011;3555;53.248;10.336;2023-12-20T03:46:12;11.80;;;3.10;;
7027;SDS011;3555;53.248;10.336;2023-12-20T03:48:40;8.20;;;2.87;;
7027;SDS011;3555;53.248;10.336;2023-12-20T03:51:07;11.40;;;2.67;;
7027;SDS011;3555;53.248;10.336;2023-12-20T03:53:34;12.03;;;3.20;;
7027;SDS011;3555;53.248;10.336;2023-12-20T03:56:00;10.17;;;2.43;;
7027;SDS011;3555;53.248;10.336;2023-12-20T03:58:27;9.60;;;2.37;;
7027;SDS011;3555;53.248;10.336;2023-12-20T04:00:54;14.50;;;2.80;;
7027;SDS011;3555;53.248;10.336;2023-12-20T04:03:21;10.80;;;2.30;;
7027;SDS011;3555;53.248;10.336;2023-12-20T04:05:49;11.60;;;2.70;;
7027;SDS011;3555;53.248;10.336;2023-12-20T04:08:16;13.23;;;2.70;;
7027;SDS011;3555;53.248;10.336;2023-12-20T04:10:43;9.60;;;2.63;;
7027;SDS011;3555;53.248;10.336;2023-12-20T04:13:10;10.57;;;2.53;;
7027;SDS011;3555;53.248;10.336;2023-12-20T04:15:37;10.03;;;2.57;;
7027;SDS011;3555;53.248;10.336;2023-12-20T04:18:04;6.57;;;2.70;;
7027;SDS011;3555;53.248;10.336;2023-12-20T04:20:31;9.13;;;2.20;;
7027;SDS011;3555;53.248;10.336;2023-12-20T04:22:59;8.43;;;2.83;;
7027;SDS011;3555;53.248;10.336;2023-12-20T04:25:26;10.53;;;2.80;;
7027;SDS011;3555;53.248;10.336;2023-12-20T04:27:52;8.40;;;2.83;;
7027;SDS011;3555;53.248;10.336;2023-12-20T04:30:19;7.37;;;2.27;;
7027;SDS011;3555;53.248;10.336;2023-12-20T04:32:46;13.17;;;2.97;;
7027;SDS011;3555;53.248;10.336;2023-12-20T04:35:13;11.67;;;2.80;;
7027;SDS011;3555;53.248;10.336;2023-12-20T04:37:40;6.83;;;2.63;;
7027;SDS011;3555;53.248;10.336;2023-12-20T04:40:09;8.43;;;2.60;;
7027;SDS011;3555;53.248;10.336;2023-12-20T04:42:36;10.80;;;3.27;;
7027;SDS011;3555;53.248;10.336;2023-12-20T04:45:03;8.13;;;2.67;;
7027;SDS011;3555;53.248;10.336;2023-12-20T04:47:31;13.27;;;3.03;;
7027;SDS011;3555;53.248;10.336;2023-12-20T04:49:58;10.30;;;2.70;;
7027;SDS011;3555;53.248;10.336;2023-12-20T04:52:25;5.90;;;2.47;;
7027;SDS011;3555;53.248;10.336;2023-12-20T04:54:52;11.00;;;3.10;;
7027;SDS011;3555;53.248;10.336;2023-12-20T04:57:20;7.37;;;2.50;;
7027;SDS011;3555;53.248;10.336;2023-12-20T04:59:47;10.13;;;2.80;;
7027;SDS011;3555;53.248;10.336;2023-12-20T05:02:14;7.60;;;2.90;;
7027;SDS011;3555;53.248;10.336;2023-12-20T05:04:41;9.63;;;2.80;;
7027;SDS011;3555;53.248;10.336;2023-12-20T05:07:08;8.57;;;2.40;;
7027;SDS011;3555;53.248;10.336;2023-12-20T05:09:35;12.47;;;3.53;;
7027;SDS011;3555;53.248;10.336;2023-12-20T05:12:02;11.80;;;3.60;;
7027;SDS011;3555;53.248;10.336;2023-12-20T05:14:30;12.20;;;3.03;;
7027;SDS011;3555;53.248;10.336;2023-12-20T05:16:57;15.63;;;3.03;;
7027;SDS011;3555;53.248;10.336;2023-12-20T05:19:24;11.53;;;3.60;;
7027;SDS011;3555;53.248;10.336;2023-12-20T05:21:51;9.93;;;2.97;;
7027;SDS011;3555;53.248;10.336;2023-12-20T05:24:18;13.67;;;3.03;;
7027;SDS011;3555;53.248;10.336;2023-12-20T05:26:45;8.57;;;2.83;;
7027;SDS011;3555;53.248;10.336;2023-12-20T05:29:12;10.60;;;2.80;;
7027;SDS011;3555;53.248;10.336;2023-12-20T05:31:40;8.43;;;3.03;;
7027;SDS011;3555;53.248;10.336;2023-12-20T05:34:07;9.83;;;2.67;;
7027;SDS011;3555;53.248;10.336;2023-12-20T05:36:34;11.13;;;2.80;;
7027;SDS011;3555;53.248;10.336;2023-12-20T05:39:02;8.53;;;2.80;;
7027;SDS011;3555;53.248;10.336;2023-12-20T05:41:29;8.67;;;2.90;;
7027;SDS011;3555;53.248;10.336;2023-12-20T05:43:56;11.93;;;3.80;;
7027;SDS011;3555;53.248;10.336;2023-12-20T05:46:24;8.33;;;2.90;;
7027;SDS011;3555;53.248;10.336;2023-12-20T05:48:52;10.43;;;2.63;;
7027;SDS011;3555;53.248;10.336;2023-12-20T05:51:19;12.70;;;3.23;;
7027;SDS011;3555;53.248;10.336;2023-12-20T05:53:47;10.00;;;2.87;;
7027;SDS011;3555;53.248;10.336;2023-12-20T05:56:15;22.37;;;4.67;;
7027;SDS011;3555;53.248;10.336;2023-12-20T05:58:42;10.87;;;2.70;;
7027;SDS011;3555;53.248;10.336;2023-12-20T06:01:09;11.00;;;3.00;;
7027;SDS011;3555;53.248;10.336;2023-12-20T06:03:37;10.60;;;2.83;;
7027;SDS011;3555;53.248;10.336;2023-12-20T06:06:08;10.40;;;3.03;;
7027;SDS011;3555;53.248;10.336;2023-12-20T06:08:35;13.77;;;3.70;;
7027;SDS011;3555;53.248;10.336;2023-12-20T06:11:02;11.27;;;3.20;;
7027;SDS011;3555;53.248;10.336;2023-12-20T06:13:30;11.27;;;3.33;;
7027;SDS011;3555;53.248;10.336;2023-12-20T06:15:57;8.20;;;3.30;;
7027;SDS011;3555;53.248;10.336;2023-12-20T06:18:24;12.63;;;3.43;;
7027;SDS011;3555;53.248;10.336;2023-12-20T06:20:50;11.07;;;3.40;;
7027;SDS011;3555;53.248;10.336;2023-12-20T06:23:19;16.03;;;3.73;;
7027;SDS011;3555;53.248;10.336;2023-12-20T06:25:45;12.97;;;3.30;;
7027;SDS011;3555;53.248;10.336;2023-12-20T06:28:12;11.30;;;3.90;;
7027;SDS011;3555;53.248;10.336;2023-12-20T06:30:40;11.27;;;3.50;;
7027;SDS011;3555;53.248;10.336;2023-12-20T06:33:07;5.70;;;3.33;;
7027;SDS011;3555;53.248;10.336;2023-12-20T06:35:35;7.80;;;3.13;;
7027;SDS011;3555;53.248;10.336;2023-12-20T06:38:01;12.80;;;4.10;;
7027;SDS011;3555;53.248;10.336;2023-12-20T06:40:30;17.33;;;3.93;;
7027;SDS011;3555;53.248;10.336;2023-12-20T06:42:57;13.77;;;4.20;;
7027;SDS011;3555;53.248;10.336;2023-12-20T06:45:24;12.23;;;4.13;;
7027;SDS011;3555;53.248;10.336;2023-12-20T06:47:51;10.07;;;3.00;;
7027;SDS011;3555;53.248;10.336;2023-12-20T06:50:19;12.03;;;3.60;;
7027;SDS011;3555;53.248;10.336;2023-12-20T06:52:46;15.00;;;3.33;;
7027;SDS011;3555;53.248;10.336;2023-12-20T06:55:13;11.43;;;4.00;;
7027;SDS011;3555;53.248;10.336;2023-12-20T06:57:41;17.17;;;3.70;;
7027;SDS011;3555;53.248;10.336;2023-12-20T07:00:08;12.27;;;3.30;;
7027;SDS011;3555;53.248;10.336;2023-12-20T07:02:38;10.60;;;3.10;;
7027;SDS011;3555;53.248;10.336;2023-12-20T07:05:05;9.63;;;3.13;;
7027;SDS011;3555;53.248;10.336;2023-12-20T07:07:32;12.73;;;2.93;;
7027;SDS011;3555;53.248;10.336;2023-12-20T07:09:59;18.50;;;3.50;;
7027;SDS011;3555;53.248;10.336;2023-12-20T07:12:26;13.87;;;3.20;;
7027;SDS011;3555;53.248;10.336;2023-12-20T07:14:54;12.13;;;2.90;;
7027;SDS011;3555;53.248;10.336;2023-12-20T07:17:22;9.30;;;3.00;;
7027;SDS011;3555;53.248;10.336;2023-12-20T07:19:48;10.67;;;3.40;;
7027;SDS011;3555;53.248;10.336;2023-12-20T07:22:15;13.80;;;3.50;;
7027;SDS011;3555;53.248;10.336;2023-12-20T07:24:42;7.83;;;3.07;;
7027;SDS011;3555;53.248;10.336;2023-12-20T07:27:09;11.00;;;3.27;;
7027;SDS011;3555;53.248;10.336;2023-12-20T07:29:36;10.90;;;2.80;;
7027;SDS011;3555;53.248;10.336;2023-12-20T07:32:05;16.07;;;3.60;;
7027;SDS011;3555;53.248;10.336;2023-12-20T07:34:33;15.63;;;3.23;;
7027;SDS011;3555;53.248;10.336;2023-12-20T07:37:00;10.57;;;2.73;;
7027;SDS011;3555;53.248;10.336;2023-12-20T07:39:27;9.13;;;3.00;;
7027;SDS011;3555;53.248;10.336;2023-12-20T07:41:54;11.87;;;3.20;;
7027;SDS011;3555;53.248;10.336;2023-12-20T07:44:21;12.97;;;3.07;;
7027;SDS011;3555;53.248;10.336;2023-12-20T07:46:47;16.10;;;2.67;;
7027;SDS011;3555;53.248;10.336;2023-12-20T07:49:16;10.33;;;3.13;;
7027;SDS011;3555;53.248;10.336;2023-12-20T07:51:43;13.00;;;3.43;;
7027;SDS011;3555;53.248;10.336;2023-12-20T07:54:10;12.20;;;3.03;;
7027;SDS011;3555;53.248;10.336;2023-12-20T07:56:37;8.77;;;2.63;;
7027;SDS011;3555;53.248;10.336;2023-12-20T07:59:05;11.17;;;3.40;;
7027;SDS011;3555;53.248;10.336;2023-12-20T08:01:32;15.53;;;2.90;;
7027;SDS011;3555;53.248;10.336;2023-12-20T08:03:58;13.60;;;3.20;;
7027;SDS011;3555;53.248;10.336;2023-12-20T08:06:27;10.47;;;3.00;;
7027;SDS011;3555;53.248;10.336;2023-12-20T08:08:53;9.70;;;3.03;;
7027;SDS011;3555;53.248;10.336;2023-12-20T08:11:20;12.63;;;3.10;;
7027;SDS011;3555;53.248;10.336;2023-12-20T08:13:47;14.63;;;3.03;;
7027;SDS011;3555;53.248;10.336;2023-12-20T08:16:14;17.90;;;3.33;;
7027;SDS011;3555;53.248;10.336;2023-12-20T08:18:42;8.13;;;3.30;;
7027;SDS011;3555;53.248;10.336;2023-12-20T08:21:09;16.37;;;2.93;;
7027;SDS011;3555;53.248;10.336;2023-12-20T08:23:38;15.57;;;3.63;;
7027;SDS011;3555;53.248;10.336;2023-12-20T08:26:05;16.30;;;3.43;;
7027;SDS011;3555;53.248;10.336;2023-12-20T08:28:32;14.80;;;3.60;;
7027;SDS011;3555;53.248;10.336;2023-12-20T08:30:59;12.70;;;2.80;;
7027;SDS011;3555;53.248;10.336;2023-12-20T08:33:26;18.13;;;4.00;;
7027;SDS011;3555;53.248;10.336;2023-12-20T08:35:53;13.60;;;3.63;;
7027;SDS011;3555;53.248;10.336;2023-12-20T08:38:19;15.00;;;3.30;;
7027;SDS011;3555;53.248;10.336;2023-12-20T08:40:48;14.37;;;3.20;;
7027;SDS011;3555;53.248;10.336;2023-12-20T08:43:15;14.53;;;4.20;;
7027;SDS011;3555;53.248;10.336;2023-12-20T08:45:41;15.20;;;4.13;;
7027;SDS011;3555;53.248;10.336;2023-12-20T08:48:08;11.83;;;3.30;;
7027;SDS011;3555;53.248;10.336;2023-12-20T08:50:35;11.17;;;3.27;;
7027;SDS011;3555;53.248;10.336;2023-12-20T08:53:02;14.70;;;3.37;;
7027;SDS011;3555;53.248;10.336;2023-12-20T08:55:29;10.63;;;3.03;;
7027;SDS011;3555;53.248;10.336;2023-12-20T08:57:58;12.10;;;3.07;;
7027;SDS011;3555;53.248;10.336;2023-12-20T09:00:25;9.03;;;3.10;;
7027;SDS011;3555;53.248;10.336;2023-12-20T09:02:53;14.03;;;3.03;;
7027;SDS011;3555;53.248;10.336;2023-12-20T09:05:20;12.43;;;3.13;;
7027;SDS011;3555;53.248;10.336;2023-12-20T09:07:47;13.23;;;3.37;;
7027;SDS011;3555;53.248;10.336;2023-12-20T09:10:14;9.77;;;2.80;;
7027;SDS011;3555;53.248;10.336;2023-12-20T09:12:41;19.87;;;3.33;;
7027;SDS011;3555;53.248;10.336;2023-12-20T09:15:09;9.93;;;3.07;;
7027;SDS011;3555;53.248;10.336;2023-12-20T09:17:36;13.90;;;2.60;;
7027;SDS011;3555;53.248;10.336;2023-12-20T09:20:03;14.40;;;2.80;;
7027;SDS011;3555;53.248;10.336;2023-12-20T09:22:32;7.83;;;3.20;;
7027;SDS011;3555;53.248;10.336;2023-12-20T09:24:58;10.37;;;2.87;;
7027;SDS011;3555;53.248;10.336;2023-12-20T09:27:26;14.40;;;3.30;;
7027;SDS011;3555;53.248;10.336;2023-12-20T09:29:53;21.43;;;3.70;;
7027;SDS011;3555;53.248;10.336;2023-12-20T09:32:21;12.60;;;3.03;;
7027;SDS011;3555;53.248;10.336;2023-12-20T09:34:48;14.17;;;3.07;;
7027;SDS011;3555;53.248;10.336;2023-12-20T09:37:15;19.47;;;3.20;;
7027;SDS011;3555;53.248;10.336;2023-12-20T09:39:42;11.53;;;3.03;;
7027;SDS011;3555;53.248;10.336;2023-12-20T09:42:09;18.27;;;3.23;;
7027;SDS011;3555;53.248;10.336;2023-12-20T09:44:42;12.07;;;2.83;;
7027;SDS011;3555;53.248;10.336;2023-12-20T09:47:09;17.97;;;3.50;;
7027;SDS011;3555;53.248;10.336;2023-12-20T09:49:38;13.93;;;3.57;;
7027;SDS011;3555;53.248;10.336;2023-12-20T09:52:05;13.80;;;4.27;;
7027;SDS011;3555;53.248;10.336;2023-12-20T09:54:35;7.83;;;2.67;;
7027;SDS011;3555;53.248;10.336;2023-12-20T09:57:02;13.97;;;3.50;;
7027;SDS011;3555;53.248;10.336;2023-12-20T09:59:30;10.43;;;2.70;;
7027;SDS011;3555;53.248;10.336;2023-12-20T10:01:57;11.70;;;2.97;;
7027;SDS011;3555;53.248;10.336;2023-12-20T10:04:28;8.10;;;2.80;;
7027;SDS011;3555;53.248;10.336;2023-12-20T10:07:02;5.67;;;1.70;;
7027;SDS011;3555;53.248;10.336;2023-12-20T10:09:30;7.40;;;2.03;;
7027;SDS011;3555;53.248;10.336;2023-12-20T10:11:57;3.90;;;1.50;;
7027;SDS011;3555;53.248;10.336;2023-12-20T10:14:24;6.60;;;1.83;;
7027;SDS011;3555;53.248;10.336;2023-12-20T10:16:51;3.43;;;1.33;;
7027;SDS011;3555;53.248;10.336;2023-12-20T10:19:19;7.37;;;1.60;;
7027;SDS011;3555;53.248;10.336;2023-12-20T10:21:46;3.00;;;1.40;;
7027;SDS011;3555;53.248;10.336;2023-12-20T10:24:17;1.50;;;0.90;;
7027;SDS011;3555;53.248;10.336;2023-12-20T10:26:44;3.47;;;1.10;;
7027;SDS011;3555;53.248;10.336;2023-12-20T10:29:11;3.00;;;1.03;;
7027;SDS011;3555;53.248;10.336;2023-12-20T10:31:38;2.60;;;1.00;;
7027;SDS011;3555;53.248;10.336;2023-12-20T10:34:05;3.17;;;0.93;;
7027;SDS011;3555;53.248;10.336;2023-12-20T10:36:32;1.63;;;1.03;;
7027;SDS011;3555;53.248;10.336;2023-12-20T10:39:01;2.60;;;0.90;;
7027;SDS011;3555;53.248;10.336;2023-12-20T10:41:30;3.13;;;1.10;;
7027;SDS011;3555;53.248;10.336;2023-12-20T10:43:58;2.87;;;0.83;;
7027;SDS011;3555;53.248;10.336;2023-12-20T10:46:26;1.93;;;0.80;;
7027;SDS011;3555;53.248;10.336;2023-12-20T10:48:55;2.03;;;0.93;;
7027;SDS011;3555;53.248;10.336;2023-12-20T10:51:22;4.13;;;0.90;;
7027;SDS011;3555;53.248;10.336;2023-12-20T10:53:51;2.23;;;1.10;;
7027;SDS011;3555;53.248;10.336;2023-12-20T10:56:19;3.10;;;1.00;;
7027;SDS011;3555;53.248;10.336;2023-12-20T10:58:49;2.10;;;0.90;;
7027;SDS011;3555;53.248;10.336;2023-12-20T11:01:17;1.87;;;0.77;;
7027;SDS011;3555;53.248;10.336;2023-12-20T11:03:48;2.63;;;0.97;;
7027;SDS011;3555;53.248;10.336;2023-12-20T11:06:24;2.27;;;0.93;;
7027;SDS011;3555;53.248;10.336;2023-12-20T11:08:58;4.50;;;1.03;;
7027;SDS011;3555;53.248;10.336;2023-12-20T11:11:35;3.10;;;0.87;;
7027;SDS011;3555;53.248;10.336;2023-12-20T11:14:14;2.37;;;1.00;;
7027;SDS011;3555;53.248;10.336;2023-12-20T11:16:44;2.30;;;0.90;;
7027;SDS011;3555;53.248;10.336;2023-12-20T11:19:12;2.33;;;1.00;;
7027;SDS011;3555;53.248;10.336;2023-12-20T11:21:40;4.30;;;1.00;;
7027;SDS011;3555;53.248;10.336;2023-12-20T11:24:06;5.10;;;1.00;;
7027;SDS011;3555;53.248;10.336;2023-12-20T11:26:33;3.77;;;0.83;;
7027;SDS011;3555;53.248;10.336;2023-12-20T11:31:59;2.83;;;1.23;;
7027;SDS011;3555;53.248;10.336;2023-12-20T11:34:27;2.80;;;1.00;;
7027;SDS011;3555;53.248;10.336;2023-12-20T11:36:58;3.73;;;1.13;;
7027;SDS011;3555;53.248;10.336;2023-12-20T11:39:26;3.10;;;1.07;;
7027;SDS011;3555;53.248;10.336;2023-12-20T11:41:54;4.03;;;1.20;;
7027;SDS011;3555;53.248;10.336;2023-12-20T11:44:22;4.53;;;1.20;;
7027;SDS011;3555;53.248;10.336;2023-12-20T11:46:52;3.77;;;1.17;;
7027;SDS011;3555;53.248;10.336;2023-12-20T11:49:23;5.43;;;1.47;;
7027;SDS011;3555;53.248;10.336;2023-12-20T11:51:50;5.17;;;1.47;;
7027;SDS011;3555;53.248;10.336;2023-12-20T11:54:17;4.03;;;1.43;;
7027;SDS011;3555;53.248;10.336;2023-12-20T11:56:45;6.20;;;1.47;;
7027;SDS011;3555;53.248;10.336;2023-12-20T11:59:13;2.70;;;1.40;;
7027;SDS011;3555;53.248;10.336;2023-12-20T12:01:40;6.87;;;1.47;;
7027;SDS011;3555;53.248;10.336;2023-12-20T12:04:15;3.80;;;1.30;;
7027;SDS011;3555;53.248;10.336;2023-12-20T12:06:43;4.17;;;1.20;;
7027;SDS011;3555;53.248;10.336;2023-12-20T12:09:10;3.80;;;1.67;;
7027;SDS011;3555;53.248;10.336;2023-12-20T12:11:37;5.80;;;1.37;;
7027;SDS011;3555;53.248;10.336;2023-12-20T12:14:04;6.60;;;1.47;;
7027;SDS011;3555;53.248;10.336;2023-12-20T12:16:30;4.67;;;1.37;;
7027;SDS011;3555;53.248;10.336;2023-12-20T12:18:58;5.83;;;1.40;;
7027;SDS011;3555;53.248;10.336;2023-12-20T12:21:27;4.77;;;1.20;;
7027;SDS011;3555;53.248;10.336;2023-12-20T12:23:54;5.83;;;1.47;;
7027;SDS011;3555;53.248;10.336;2023-12-20T12:26:31;3.63;;;1.00;;
7027;SDS011;3555;53.248;10.336;2023-12-20T12:28:58;6.87;;;1.30;;
7027;SDS011;3555;53.248;10.336;2023-12-20T12:31:25;4.43;;;1.30;;
7027;SDS011;3555;53.248;10.336;2023-12-20T12:33:52;8.27;;;2.43;;
7027;SDS011;3555;53.248;10.336;2023-12-20T12:36:19;5.43;;;1.30;;
7027;SDS011;3555;53.248;10.336;2023-12-20T12:38:47;6.97;;;1.70;;
7027;SDS011;3555;53.248;10.336;2023-12-20T12:41:14;8.07;;;1.73;;
7027;SDS011;3555;53.248;10.336;2023-12-20T12:43:41;5.50;;;1.50;;
7027;SDS011;3555;53.248;10.336;2023-12-20T12:46:08;14.43;;;1.97;;
7027;SDS011;3555;53.248;10.336;2023-12-20T12:48:35;5.17;;;1.30;;
7027;SDS011;3555;53.248;10.336;2023-12-20T12:51:02;9.60;;;1.77;;
7027;SDS011;3555;53.248;10.336;2023-12-20T12:53:29;5.57;;;1.57;;
7027;SDS011;3555;53.248;10.336;2023-12-20T12:55:57;6.03;;;1.73;;
7027;SDS011;3555;53.248;10.336;2023-12-20T12:58:24;5.80;;;1.57;;
7027;SDS011;3555;53.248;10.336;2023-12-20T13:00:51;5.77;;;1.53;;
7027;SDS011;3555;53.248;10.336;2023-12-20T13:03:18;6.97;;;1.60;;
7027;SDS011;3555;53.248;10.336;2023-12-20T13:05:45;5.03;;;1.50;;
7027;SDS011;3555;53.248;10.336;2023-12-20T13:08:13;6.47;;;1.50;;
7027;SDS011;3555;53.248;10.336;2023-12-20T13:10:39;4.60;;;1.20;;
7027;SDS011;3555;53.248;10.336;2023-12-20T13:13:08;2.53;;;1.20;;
7027;SDS011;3555;53.248;10.336;2023-12-20T13:15:35;9.27;;;1.40;;
7027;SDS011;3555;53.248;10.336;2023-12-20T13:18:01;3.33;;;1.40;;
7027;SDS011;3555;53.248;10.336;2023-12-20T13:20:29;3.13;;;1.20;;
7027;SDS011;3555;53.248;10.336;2023-12-20T13:22:56;2.77;;;1.13;;
7027;SDS011;3555;53.248;10.336;2023-12-20T13:25:23;4.23;;;1.30;;
7027;SDS011;3555;53.248;10.336;2023-12-20T13:27:50;3.73;;;1.20;;
7027;SDS011;3555;53.248;10.336;2023-12-20T13:30:18;7.33;;;1.60;;
7027;SDS011;3555;53.248;10.336;2023-12-20T13:32:45;6.77;;;2.10;;
7027;SDS011;3555;53.248;10.336;2023-12-20T13:35:12;6.57;;;1.90;;
7027;SDS011;3555;53.248;10.336;2023-12-20T13:37:39;8.47;;;1.80;;
7027;SDS011;3555;53.248;10.336;2023-12-20T13:40:06;3.60;;;2.00;;
7027;SDS011;3555;53.248;10.336;2023-12-20T13:42:34;7.03;;;1.87;;
7027;SDS011;3555;53.248;10.336;2023-12-20T13:45:00;10.03;;;2.40;;
7027;SDS011;3555;53.248;10.336;2023-12-20T13:47:31;10.37;;;2.50;;
7027;SDS011;3555;53.248;10.336;2023-12-20T13:49:59;9.60;;;2.30;;
7027;SDS011;3555;53.248;10.336;2023-12-20T13:52:26;6.43;;;1.83;;
7027;SDS011;3555;53.248;10.336;2023-12-20T13:54:53;13.43;;;2.43;;
7027;SDS011;3555;53.248;10.336;2023-12-20T13:57:20;9.87;;;1.97;;
7027;SDS011;3555;53.248;10.336;2023-12-20T13:59:47;10.47;;;2.57;;
7027;SDS011;3555;53.248;10.336;2023-12-20T14:02:14;14.30;;;3.33;;
7027;SDS011;3555;53.248;10.336;2023-12-20T14:04:42;7.47;;;2.23;;
7027;SDS011;3555;53.248;10.336;2023-12-20T14:07:09;7.40;;;2.37;;
7027;SDS011;3555;53.248;10.336;2023-12-20T14:09:36;10.27;;;2.63;;
7027;SDS011;3555;53.248;10.336;2023-12-20T14:12:03;8.60;;;2.30;;
7027;SDS011;3555;53.248;10.336;2023-12-20T14:14:31;9.43;;;2.30;;
7027;SDS011;3555;53.248;10.336;2023-12-20T14:16:58;10.83;;;2.87;;
7027;SDS011;3555;53.248;10.336;2023-12-20T14:19:24;6.97;;;2.37;;
7027;SDS011;3555;53.248;10.336;2023-12-20T14:21:53;15.57;;;2.63;;
7027;SDS011;3555;53.248;10.336;2023-12-20T14:24:19;8.83;;;2.30;;
7027;SDS011;3555;53.248;10.336;2023-12-20T14:26:46;9.07;;;2.47;;
7027;SDS011;3555;53.248;10.336;2023-12-20T14:29:13;11.00;;;2.37;;
7027;SDS011;3555;53.248;10.336;2023-12-20T14:31:40;12.43;;;2.73;;
7027;SDS011;3555;53.248;10.336;2023-12-20T14:34:07;11.33;;;2.60;;
7027;SDS011;3555;53.248;10.336;2023-12-20T14:36:34;8.33;;;2.63;;
7027;SDS011;3555;53.248;10.336;2023-12-20T14:39:02;10.83;;;2.40;;
7027;SDS011;3555;53.248;10.336;2023-12-20T14:41:29;17.40;;;2.57;;
7027;SDS011;3555;53.248;10.336;2023-12-20T14:43:56;9.80;;;2.60;;
7027;SDS011;3555;53.248;10.336;2023-12-20T14:46:24;10.77;;;2.20;;
7027;SDS011;3555;53.248;10.336;2023-12-20T14:48:52;17.43;;;2.43;;
7027;SDS011;3555;53.248;10.336;2023-12-20T14:51:18;9.00;;;2.33;;
7027;SDS011;3555;53.248;10.336;2023-12-20T14:53:45;8.20;;;2.27;;
7027;SDS011;3555;53.248;10.336;2023-12-20T14:56:13;15.00;;;2.77;;
7027;SDS011;3555;53.248;10.336;2023-12-20T14:58:41;16.60;;;2.73;;